Kalalock, Washington
Current Conditions -  °F | °C
As of 12:53 AM on Wednesday 26 Nov 2014 (Local Time) from KUIL Reporting Station
Haze Haze  
Wind Chill: 54°   Ceiling: 300
Heat Index: 54°   Visibility: 4mi
Dew Point: 54°   Wind: 12mph
Humidity: 100%   Direction: 220°SW
Pressure: 30.15"   Gusts: NA
Location:  47.9519°N, 124.29°W
Report Text: KUIL 260853Z AUTO 22010KT 4SM BR OVC003 12/12 A3015 RMK AO2 SLP210 T01220122 50000
Loading
Personal Weather Stations






























Interactive Weather Map New forecast layout! Learn more

10-Day Weather Forecast

Advertisements
Track Severe Weather on mobile